sensor_id;sensor_type;location;lat;lon;timestamp;pressure;altitude;pressure_sealevel;temperature;humidity
7918;BME280;4004;42.624;23.386;2023-10-31T00:01:05;94372.19;;;10.92;100.00
7918;BME280;4004;42.624;23.386;2023-10-31T00:03:33;94374.94;;;10.95;100.00
7918;BME280;4004;42.624;23.386;2023-10-31T00:05:59;94374.31;;;11.02;100.00
7918;BME280;4004;42.624;23.386;2023-10-31T00:08:26;94373.75;;;10.93;100.00
7918;BME280;4004;42.624;23.386;2023-10-31T00:10:53;94369.75;;;10.87;100.00
7918;BME280;4004;42.624;23.386;2023-10-31T00:13:19;94359.38;;;10.69;100.00
7918;BME280;4004;42.624;23.386;2023-10-31T00:15:46;94365.47;;;10.66;100.00
7918;BME280;4004;42.624;23.386;2023-10-31T00:18:13;94362.25;;;10.76;100.00
7918;BME280;4004;42.624;23.386;2023-10-31T00:20:41;94365.63;;;10.73;100.00
7918;BME280;4004;42.624;23.386;2023-10-31T00:23:07;94359.13;;;10.74;100.00
7918;BME280;4004;42.624;23.386;2023-10-31T00:25:34;94356.00;;;10.72;100.00
7918;BME280;4004;42.624;23.386;2023-10-31T00:28:01;94351.50;;;10.76;100.00
7918;BME280;4004;42.624;23.386;2023-10-31T00:30:27;94354.19;;;10.76;100.00
7918;BME280;4004;42.624;23.386;2023-10-31T00:32:54;94365.97;;;10.88;100.00
7918;BME280;4004;42.624;23.386;2023-10-31T00:35:21;94354.81;;;10.89;100.00
7918;BME280;4004;42.624;23.386;2023-10-31T00:37:49;94355.19;;;10.88;100.00
7918;BME280;4004;42.624;23.386;2023-10-31T00:40:15;94356.25;;;10.83;100.00
7918;BME280;4004;42.624;23.386;2023-10-31T00:42:43;94343.50;;;10.80;100.00
7918;BME280;4004;42.624;23.386;2023-10-31T00:45:10;94346.69;;;10.86;100.00
7918;BME280;4004;42.624;23.386;2023-10-31T00:47:36;94347.38;;;10.83;100.00
7918;BME280;4004;42.624;23.386;2023-10-31T00:50:04;94340.03;;;10.79;100.00
7918;BME280;4004;42.624;23.386;2023-10-31T00:52:31;94339.69;;;10.81;100.00
7918;BME280;4004;42.624;23.386;2023-10-31T00:54:59;94344.69;;;10.83;100.00
7918;BME280;4004;42.624;23.386;2023-10-31T00:57:25;94338.47;;;10.78;100.00
7918;BME280;4004;42.624;23.386;2023-10-31T00:59:52;94343.84;;;10.78;100.00
7918;BME280;4004;42.624;23.386;2023-10-31T01:02:19;94335.00;;;10.78;100.00
7918;BME280;4004;42.624;23.386;2023-10-31T01:04:45;94334.66;;;10.79;100.00
7918;BME280;4004;42.624;23.386;2023-10-31T01:07:12;94335.19;;;10.69;100.00
7918;BME280;4004;42.624;23.386;2023-10-31T01:09:42;94330.22;;;10.71;100.00
7918;BME280;4004;42.624;23.386;2023-10-31T01:12:10;94329.59;;;10.58;100.00
7918;BME280;4004;42.624;23.386;2023-10-31T01:14:37;94328.31;;;10.36;100.00
7918;BME280;4004;42.624;23.386;2023-10-31T01:17:04;94316.69;;;10.32;100.00
7918;BME280;4004;42.624;23.386;2023-10-31T01:19:30;94322.50;;;10.34;100.00
7918;BME280;4004;42.624;23.386;2023-10-31T01:21:57;94319.09;;;10.37;100.00
7918;BME280;4004;42.624;23.386;2023-10-31T01:24:24;94321.97;;;10.29;100.00
7918;BME280;4004;42.624;23.386;2023-10-31T01:26:50;94322.91;;;10.21;100.00
7918;BME280;4004;42.624;23.386;2023-10-31T01:29:18;94319.34;;;10.16;100.00
7918;BME280;4004;42.624;23.386;2023-10-31T01:31:45;94319.88;;;10.22;100.00
7918;BME280;4004;42.624;23.386;2023-10-31T01:34:12;94322.47;;;10.19;100.00
7918;BME280;4004;42.624;23.386;2023-10-31T01:36:39;94317.34;;;10.13;100.00
7918;BME280;4004;42.624;23.386;2023-10-31T01:39:05;94317.72;;;10.12;100.00
7918;BME280;4004;42.624;23.386;2023-10-31T01:41:33;94305.56;;;10.02;100.00
7918;BME280;4004;42.624;23.386;2023-10-31T01:43:59;94312.59;;;10.07;100.00
7918;BME280;4004;42.624;23.386;2023-10-31T01:46:27;94309.22;;;10.10;100.00
7918;BME280;4004;42.624;23.386;2023-10-31T01:48:54;94312.59;;;10.07;100.00
7918;BME280;4004;42.624;23.386;2023-10-31T01:51:21;94308.53;;;9.97;100.00
7918;BME280;4004;42.624;23.386;2023-10-31T01:53:47;94312.16;;;10.05;100.00
7918;BME280;4004;42.624;23.386;2023-10-31T01:56:14;94313.44;;;10.11;100.00
7918;BME280;4004;42.624;23.386;2023-10-31T01:58:41;94311.47;;;10.08;100.00
7918;BME280;4004;42.624;23.386;2023-10-31T02:01:08;94307.47;;;10.02;100.00
7918;BME280;4004;42.624;23.386;2023-10-31T03:12:13;94286.16;;;8.77;100.00
7918;BME280;4004;42.624;23.386;2023-10-31T03:14:40;94279.66;;;8.78;100.00
7918;BME280;4004;42.624;23.386;2023-10-31T03:17:07;94281.03;;;8.71;100.00
7918;BME280;4004;42.624;23.386;2023-10-31T03:19:33;94281.69;;;8.81;100.00
7918;BME280;4004;42.624;23.386;2023-10-31T03:22:00;94287.50;;;8.83;100.00
7918;BME280;4004;42.624;23.386;2023-10-31T03:24:27;94282.13;;;8.83;100.00
7918;BME280;4004;42.624;23.386;2023-10-31T03:26:53;94277.34;;;8.76;100.00
7918;BME280;4004;42.624;23.386;2023-10-31T03:29:22;94276.97;;;8.78;100.00
7918;BME280;4004;42.624;23.386;2023-10-31T03:31:48;94275.97;;;8.82;100.00
7918;BME280;4004;42.624;23.386;2023-10-31T03:34:15;94278.88;;;8.89;100.00
7918;BME280;4004;42.624;23.386;2023-10-31T03:36:42;94269.81;;;8.82;100.00
7918;BME280;4004;42.624;23.386;2023-10-31T03:39:08;94282.78;;;8.80;100.00
7918;BME280;4004;42.624;23.386;2023-10-31T03:41:35;94267.53;;;8.68;100.00
7918;BME280;4004;42.624;23.386;2023-10-31T03:44:02;94267.19;;;8.69;100.00
7918;BME280;4004;42.624;23.386;2023-10-31T03:46:30;94273.69;;;8.56;100.00
7918;BME280;4004;42.624;23.386;2023-10-31T03:48:56;94267.53;;;8.56;100.00
7918;BME280;4004;42.624;23.386;2023-10-31T03:51:23;94258.97;;;8.50;100.00
7918;BME280;4004;42.624;23.386;2023-10-31T03:53:50;94268.09;;;8.49;100.00
7918;BME280;4004;42.624;23.386;2023-10-31T03:56:16;94268.69;;;8.42;100.00
7918;BME280;4004;42.624;23.386;2023-10-31T03:58:43;94265.88;;;8.51;100.00
7918;BME280;4004;42.624;23.386;2023-10-31T04:01:10;94255.06;;;8.47;100.00
7918;BME280;4004;42.624;23.386;2023-10-31T04:03:38;94258.06;;;8.46;100.00
7918;BME280;4004;42.624;23.386;2023-10-31T04:06:04;94247.91;;;8.52;100.00
7918;BME280;4004;42.624;23.386;2023-10-31T04:08:31;94256.84;;;8.43;100.00
7918;BME280;4004;42.624;23.386;2023-10-31T04:10:58;94255.72;;;8.44;100.00
7918;BME280;4004;42.624;23.386;2023-10-31T04:13:24;94250.91;;;8.38;100.00
7918;BME280;4004;42.624;23.386;2023-10-31T04:15:51;94266.78;;;8.30;100.00
7918;BME280;4004;42.624;23.386;2023-10-31T04:18:18;94262.63;;;8.33;100.00
7918;BME280;4004;42.624;23.386;2023-10-31T04:20:46;94269.56;;;8.34;100.00
7918;BME280;4004;42.624;23.386;2023-10-31T04:23:13;94265.56;;;8.28;100.00
7918;BME280;4004;42.624;23.386;2023-10-31T04:25:39;94262.88;;;8.28;100.00
7918;BME280;4004;42.624;23.386;2023-10-31T04:28:06;94266.97;;;8.38;100.00
7918;BME280;4004;42.624;23.386;2023-10-31T04:30:33;94243.22;;;8.36;100.00
7918;BME280;4004;42.624;23.386;2023-10-31T04:32:59;94255.38;;;8.34;100.00
7918;BME280;4004;42.624;23.386;2023-10-31T04:35:26;94247.13;;;8.39;100.00
7918;BME280;4004;42.624;23.386;2023-10-31T04:37:54;94248.47;;;8.33;100.00
7918;BME280;4004;42.624;23.386;2023-10-31T04:40:22;94250.69;;;8.30;100.00
7918;BME280;4004;42.624;23.386;2023-10-31T04:42:48;94245.47;;;8.34;100.00
7918;BME280;4004;42.624;23.386;2023-10-31T04:45:15;94253.94;;;8.36;100.00
7918;BME280;4004;42.624;23.386;2023-10-31T04:47:42;94248.78;;;8.31;100.00
7918;BME280;4004;42.624;23.386;2023-10-31T04:50:09;94249.94;;;8.30;100.00
7918;BME280;4004;42.624;23.386;2023-10-31T04:52:35;94247.56;;;8.28;100.00
7918;BME280;4004;42.624;23.386;2023-10-31T04:55:04;94260.19;;;8.28;100.00
7918;BME280;4004;42.624;23.386;2023-10-31T04:57:31;94269.22;;;8.36;100.00
7918;BME280;4004;42.624;23.386;2023-10-31T04:59:58;94271.72;;;8.41;100.00
7918;BME280;4004;42.624;23.386;2023-10-31T05:02:24;94261.44;;;8.43;100.00
7918;BME280;4004;42.624;23.386;2023-10-31T05:04:51;94268.13;;;8.37;100.00
7918;BME280;4004;42.624;23.386;2023-10-31T05:07:18;94270.47;;;8.38;100.00
7918;BME280;4004;42.624;23.386;2023-10-31T05:09:44;94265.44;;;8.24;100.00
7918;BME280;4004;42.624;23.386;2023-10-31T05:12:13;94274.69;;;8.27;100.00
7918;BME280;4004;42.624;23.386;2023-10-31T05:14:40;94270.13;;;8.27;100.00
7918;BME280;4004;42.624;23.386;2023-10-31T05:17:07;94266.09;;;8.34;100.00
7918;BME280;4004;42.624;23.386;2023-10-31T05:19:33;94263.75;;;8.57;100.00
7918;BME280;4004;42.624;23.386;2023-10-31T05:22:00;94265.59;;;8.81;100.00
7918;BME280;4004;42.624;23.386;2023-10-31T05:24:27;94256.28;;;8.90;100.00
7918;BME280;4004;42.624;23.386;2023-10-31T05:26:53;94253.75;;;9.10;100.00
7918;BME280;4004;42.624;23.386;2023-10-31T05:29:21;94263.22;;;9.36;100.00
7918;BME280;4004;42.624;23.386;2023-10-31T05:31:48;94259.38;;;9.65;100.00
7918;BME280;4004;42.624;23.386;2023-10-31T05:34:15;94264.34;;;9.79;100.00
7918;BME280;4004;42.624;23.386;2023-10-31T05:36:41;94268.56;;;10.11;100.00
7918;BME280;4004;42.624;23.386;2023-10-31T05:39:08;94279.63;;;10.57;100.00
7918;BME280;4004;42.624;23.386;2023-10-31T05:41:35;94280.47;;;10.97;100.00
7918;BME280;4004;42.624;23.386;2023-10-31T05:44:02;94281.44;;;11.28;100.00
7918;BME280;4004;42.624;23.386;2023-10-31T05:46:30;94276.97;;;11.16;100.00
7918;BME280;4004;42.624;23.386;2023-10-31T05:48:56;94280.91;;;11.18;100.00
7918;BME280;4004;42.624;23.386;2023-10-31T05:51:23;94274.03;;;11.21;100.00
7918;BME280;4004;42.624;23.386;2023-10-31T05:53:51;94277.69;;;10.93;100.00
7918;BME280;4004;42.624;23.386;2023-10-31T05:56:18;94276.78;;;10.86;100.00
7918;BME280;4004;42.624;23.386;2023-10-31T05:58:45;94285.97;;;11.04;100.00
7918;BME280;4004;42.624;23.386;2023-10-31T06:01:12;94279.19;;;11.10;100.00
7918;BME280;4004;42.624;23.386;2023-10-31T06:03:42;94275.31;;;11.27;100.00
7918;BME280;4004;42.624;23.386;2023-10-31T06:06:09;94289.22;;;11.52;100.00
7918;BME280;4004;42.624;23.386;2023-10-31T06:08:37;94300.88;;;11.60;100.00
7918;BME280;4004;42.624;23.386;2023-10-31T06:11:03;94291.47;;;11.70;100.00
7918;BME280;4004;42.624;23.386;2023-10-31T06:13:30;94303.84;;;12.17;100.00
7918;BME280;4004;42.624;23.386;2023-10-31T06:15:58;94303.28;;;12.57;98.02
7918;BME280;4004;42.624;23.386;2023-10-31T06:18:24;94299.81;;;13.14;96.50
7918;BME280;4004;42.624;23.386;2023-10-31T06:20:53;94306.34;;;13.77;93.34
7918;BME280;4004;42.624;23.386;2023-10-31T06:23:20;94310.72;;;14.33;90.31
7918;BME280;4004;42.624;23.386;2023-10-31T06:25:46;94312.66;;;14.84;85.96
7918;BME280;4004;42.624;23.386;2023-10-31T06:28:14;94310.56;;;15.19;80.40
7918;BME280;4004;42.624;23.386;2023-10-31T06:30:41;94305.94;;;15.26;77.35
7918;BME280;4004;42.624;23.386;2023-10-31T06:33:07;94306.41;;;15.46;74.24
7918;BME280;4004;42.624;23.386;2023-10-31T06:35:35;94318.56;;;15.88;71.93
7918;BME280;4004;42.624;23.386;2023-10-31T06:38:04;94322.84;;;15.97;67.48
7918;BME280;4004;42.624;23.386;2023-10-31T06:40:30;94322.50;;;16.12;66.59
7918;BME280;4004;42.624;23.386;2023-10-31T06:42:57;94336.06;;;16.37;63.51
7918;BME280;4004;42.624;23.386;2023-10-31T06:45:24;94336.47;;;16.72;62.48
7918;BME280;4004;42.624;23.386;2023-10-31T06:47:51;94341.50;;;16.55;60.04
7918;BME280;4004;42.624;23.386;2023-10-31T06:50:17;94321.72;;;16.37;60.24
7918;BME280;4004;42.624;23.386;2023-10-31T06:52:44;94321.75;;;16.48;60.08
7918;BME280;4004;42.624;23.386;2023-10-31T06:55:12;94316.28;;;16.51;62.22
7918;BME280;4004;42.624;23.386;2023-10-31T06:57:39;94311.66;;;16.98;63.27
7918;BME280;4004;42.624;23.386;2023-10-31T07:00:06;94308.41;;;17.43;62.23
7918;BME280;4004;42.624;23.386;2023-10-31T07:02:34;94307.53;;;17.68;60.96
7918;BME280;4004;42.624;23.386;2023-10-31T07:05:01;94301.59;;;17.87;58.62
7918;BME280;4004;42.624;23.386;2023-10-31T07:07:29;94310.78;;;18.11;57.17
7918;BME280;4004;42.624;23.386;2023-10-31T07:09:55;94306.84;;;18.19;56.89
7918;BME280;4004;42.624;23.386;2023-10-31T07:12:23;94306.06;;;18.22;54.87
7918;BME280;4004;42.624;23.386;2023-10-31T07:14:50;94301.00;;;18.25;54.85
7918;BME280;4004;42.624;23.386;2023-10-31T07:17:17;94299.84;;;18.18;54.36
7918;BME280;4004;42.624;23.386;2023-10-31T07:19:43;94310.63;;;17.70;55.15
7918;BME280;4004;42.624;23.386;2023-10-31T07:22:10;94305.28;;;17.45;55.65
7918;BME280;4004;42.624;23.386;2023-10-31T07:24:37;94298.69;;;17.38;55.84
7918;BME280;4004;42.624;23.386;2023-10-31T07:27:04;94288.97;;;17.48;55.63
7918;BME280;4004;42.624;23.386;2023-10-31T07:29:32;94301.28;;;17.71;55.69
7918;BME280;4004;42.624;23.386;2023-10-31T07:31:58;94300.88;;;17.83;55.79
7918;BME280;4004;42.624;23.386;2023-10-31T07:34:25;94298.91;;;17.84;55.12
7918;BME280;4004;42.624;23.386;2023-10-31T07:36:52;94297.47;;;17.57;55.30
7918;BME280;4004;42.624;23.386;2023-10-31T07:39:18;94298.25;;;17.54;56.52
7918;BME280;4004;42.624;23.386;2023-10-31T07:41:45;94291.91;;;17.83;56.46
7918;BME280;4004;42.624;23.386;2023-10-31T07:44:12;94298.00;;;18.08;54.89
7918;BME280;4004;42.624;23.386;2023-10-31T07:46:40;94285.44;;;18.25;52.81
7918;BME280;4004;42.624;23.386;2023-10-31T07:49:07;94277.88;;;17.91;52.97
7918;BME280;4004;42.624;23.386;2023-10-31T07:51:33;94277.94;;;17.88;53.46
7918;BME280;4004;42.624;23.386;2023-10-31T07:54:00;94260.16;;;17.61;53.98
7918;BME280;4004;42.624;23.386;2023-10-31T07:56:27;94268.72;;;17.60;55.26
7918;BME280;4004;42.624;23.386;2023-10-31T07:58:53;94264.03;;;17.64;55.70
7918;BME280;4004;42.624;23.386;2023-10-31T08:01:22;94258.59;;;17.64;54.48
7918;BME280;4004;42.624;23.386;2023-10-31T08:03:50;94259.31;;;17.75;54.72
7918;BME280;4004;42.624;23.386;2023-10-31T08:06:16;94250.44;;;17.64;55.19
7918;BME280;4004;42.624;23.386;2023-10-31T08:08:43;94250.09;;;17.55;56.05
7918;BME280;4004;42.624;23.386;2023-10-31T08:11:10;94248.16;;;17.55;56.43
7918;BME280;4004;42.624;23.386;2023-10-31T08:13:37;94245.09;;;17.43;57.70
7918;BME280;4004;42.624;23.386;2023-10-31T08:16:05;94249.75;;;17.46;57.77
7918;BME280;4004;42.624;23.386;2023-10-31T08:18:31;94246.00;;;17.18;59.56
7918;BME280;4004;42.624;23.386;2023-10-31T08:20:59;94245.56;;;17.30;59.57
7918;BME280;4004;42.624;23.386;2023-10-31T08:23:27;94240.09;;;17.37;59.29
7918;BME280;4004;42.624;23.386;2023-10-31T08:25:54;94239.66;;;17.43;59.39
7918;BME280;4004;42.624;23.386;2023-10-31T08:28:21;94229.22;;;17.37;60.13
7918;BME280;4004;42.624;23.386;2023-10-31T08:30:47;94231.56;;;17.35;60.36
7918;BME280;4004;42.624;23.386;2023-10-31T08:33:14;94219.09;;;17.42;60.44
7918;BME280;4004;42.624;23.386;2023-10-31T08:35:41;94222.19;;;17.44;60.59
7918;BME280;4004;42.624;23.386;2023-10-31T08:38:09;94214.06;;;17.44;60.25
7918;BME280;4004;42.624;23.386;2023-10-31T08:40:36;94209.38;;;17.48;60.83
7918;BME280;4004;42.624;23.386;2023-10-31T08:43:02;94203.88;;;17.55;59.87
7918;BME280;4004;42.624;23.386;2023-10-31T08:45:31;94198.06;;;17.53;59.46
7918;BME280;4004;42.624;23.386;2023-10-31T08:47:58;94205.16;;;17.36;59.95
7918;BME280;4004;42.624;23.386;2023-10-31T08:50:25;94194.66;;;17.38;59.62
7918;BME280;4004;42.624;23.386;2023-10-31T08:52:52;94189.13;;;17.56;59.31
7918;BME280;4004;42.624;23.386;2023-10-31T08:55:20;94183.94;;;17.76;58.58
7918;BME280;4004;42.624;23.386;2023-10-31T08:57:46;94178.00;;;17.95;57.30
7918;BME280;4004;42.624;23.386;2023-10-31T09:00:13;94172.47;;;18.06;56.48
7918;BME280;4004;42.624;23.386;2023-10-31T09:02:40;94167.34;;;18.12;55.78
7918;BME280;4004;42.624;23.386;2023-10-31T09:05:08;94159.56;;;18.14;56.38
7918;BME280;4004;42.624;23.386;2023-10-31T09:07:35;94166.13;;;18.23;55.83
7918;BME280;4004;42.624;23.386;2023-10-31T09:10:01;94154.50;;;18.16;55.70
7918;BME280;4004;42.624;23.386;2023-10-31T09:12:31;94156.00;;;18.24;54.82
7918;BME280;4004;42.624;23.386;2023-10-31T09:14:58;94150.91;;;18.30;55.03
7918;BME280;4004;42.624;23.386;2023-10-31T09:17:25;94142.72;;;18.30;55.17
7918;BME280;4004;42.624;23.386;2023-10-31T09:19:51;94143.03;;;18.39;54.55
7918;BME280;4004;42.624;23.386;2023-10-31T09:22:19;94137.53;;;18.42;54.15
7918;BME280;4004;42.624;23.386;2023-10-31T09:24:45;94135.91;;;18.49;54.40
7918;BME280;4004;42.624;23.386;2023-10-31T09:27:12;94139.84;;;18.44;54.12
7918;BME280;4004;42.624;23.386;2023-10-31T09:29:40;94134.72;;;18.50;53.93
7918;BME280;4004;42.624;23.386;2023-10-31T09:32:07;94121.09;;;18.53;53.49
7918;BME280;4004;42.624;23.386;2023-10-31T09:34:33;94122.69;;;18.51;53.05
7918;BME280;4004;42.624;23.386;2023-10-31T09:37:00;94113.75;;;18.50;52.40
7918;BME280;4004;42.624;23.386;2023-10-31T09:39:27;94100.97;;;18.43;51.90
7918;BME280;4004;42.624;23.386;2023-10-31T09:41:54;94104.22;;;18.31;52.49
7918;BME280;4004;42.624;23.386;2023-10-31T09:44:21;94104.38;;;18.17;53.19
7918;BME280;4004;42.624;23.386;2023-10-31T09:46:50;94103.09;;;18.25;53.12
7918;BME280;4004;42.624;23.386;2023-10-31T09:49:17;94095.72;;;18.26;51.65
7918;BME280;4004;42.624;23.386;2023-10-31T09:51:46;94093.31;;;18.31;51.70
7918;BME280;4004;42.624;23.386;2023-10-31T09:54:14;94075.53;;;18.23;52.77
7918;BME280;4004;42.624;23.386;2023-10-31T09:56:42;94077.34;;;18.37;52.10
7918;BME280;4004;42.624;23.386;2023-10-31T09:59:09;94065.53;;;18.47;51.65
7918;BME280;4004;42.624;23.386;2023-10-31T10:01:36;94069.47;;;18.42;52.56
7918;BME280;4004;42.624;23.386;2023-10-31T10:04:05;94064.09;;;18.39;52.71
7918;BME280;4004;42.624;23.386;2023-10-31T10:06:32;94061.00;;;18.37;52.92
7918;BME280;4004;42.624;23.386;2023-10-31T10:08:58;94047.75;;;18.39;52.95
7918;BME280;4004;42.624;23.386;2023-10-31T10:11:28;94037.25;;;18.41;52.75
7918;BME280;4004;42.624;23.386;2023-10-31T10:13:56;94045.69;;;18.50;51.93
7918;BME280;4004;42.624;23.386;2023-10-31T10:16:30;94045.91;;;18.63;51.21
7918;BME280;4004;42.624;23.386;2023-10-31T10:18:59;94034.97;;;18.67;51.33
7918;BME280;4004;42.624;23.386;2023-10-31T10:21:48;94033.38;;;18.69;51.05
7918;BME280;4004;42.624;23.386;2023-10-31T10:24:15;94032.28;;;18.63;50.20
7918;BME280;4004;42.624;23.386;2023-10-31T10:26:42;94029.97;;;18.61;50.32
7918;BME280;4004;42.624;23.386;2023-10-31T10:29:08;94025.63;;;18.68;50.08
7918;BME280;4004;42.624;23.386;2023-10-31T10:31:35;94017.88;;;18.66;48.91
7918;BME280;4004;42.624;23.386;2023-10-31T10:34:02;94015.41;;;18.79;49.12
7918;BME280;4004;42.624;23.386;2023-10-31T10:36:31;94007.88;;;18.87;48.85
7918;BME280;4004;42.624;23.386;2023-10-31T10:39:00;94012.56;;;18.86;47.21
7918;BME280;4004;42.624;23.386;2023-10-31T10:41:29;94007.91;;;18.83;47.05
7918;BME280;4004;42.624;23.386;2023-10-31T10:43:56;94006.19;;;18.96;46.84
7918;BME280;4004;42.624;23.386;2023-10-31T10:46:24;93988.19;;;19.02;46.40
7918;BME280;4004;42.624;23.386;2023-10-31T10:48:55;93982.53;;;19.17;44.34
7918;BME280;4004;42.624;23.386;2023-10-31T10:51:27;93979.34;;;19.22;44.69
7918;BME280;4004;42.624;23.386;2023-10-31T10:53:58;93976.03;;;19.34;44.49
7918;BME280;4004;42.624;23.386;2023-10-31T10:56:38;93965.06;;;19.38;44.13
7918;BME280;4004;42.624;23.386;2023-10-31T10:59:08;93960.94;;;19.50;43.02
7918;BME280;4004;42.624;23.386;2023-10-31T11:01:41;93958.13;;;19.57;43.54
7918;BME280;4004;42.624;23.386;2023-10-31T11:04:09;93946.66;;;19.65;43.39
7918;BME280;4004;42.624;23.386;2023-10-31T11:06:37;93945.06;;;19.68;43.10
7918;BME280;4004;42.624;23.386;2023-10-31T11:09:04;93945.19;;;19.61;42.57
7918;BME280;4004;42.624;23.386;2023-10-31T11:11:33;93931.97;;;19.59;43.30
7918;BME280;4004;42.624;23.386;2023-10-31T11:14:01;93935.47;;;19.60;43.95
7918;BME280;4004;42.624;23.386;2023-10-31T11:16:31;93935.31;;;19.71;44.35
7918;BME280;4004;42.624;23.386;2023-10-31T11:19:00;93938.59;;;19.82;44.24
7918;BME280;4004;42.624;23.386;2023-10-31T11:21:28;93935.16;;;19.78;44.03
7918;BME280;4004;42.624;23.386;2023-10-31T11:23:57;93928.38;;;19.86;44.40
7918;BME280;4004;42.624;23.386;2023-10-31T11:26:26;93924.81;;;19.69;45.08
7918;BME280;4004;42.624;23.386;2023-10-31T11:29:03;93921.13;;;19.79;45.06
7918;BME280;4004;42.624;23.386;2023-10-31T11:31:30;93909.91;;;19.94;45.16
7918;BME280;4004;42.624;23.386;2023-10-31T11:33:57;93905.91;;;19.98;45.19
7918;BME280;4004;42.624;23.386;2023-10-31T11:36:23;93902.50;;;19.94;45.70
7918;BME280;4004;42.624;23.386;2023-10-31T11:39:10;93901.56;;;20.01;45.37
7918;BME280;4004;42.624;23.386;2023-10-31T11:41:38;93898.44;;;20.02;45.42
7918;BME280;4004;42.624;23.386;2023-10-31T11:44:06;93890.81;;;19.94;45.34
7918;BME280;4004;42.624;23.386;2023-10-31T11:46:33;93886.19;;;20.11;45.01
7918;BME280;4004;42.624;23.386;2023-10-31T11:49:00;93885.78;;;20.12;44.90
7918;BME280;4004;42.624;23.386;2023-10-31T11:51:27;93879.66;;;20.24;44.06
7918;BME280;4004;42.624;23.386;2023-10-31T11:53:54;93877.63;;;20.28;44.12
7918;BME280;4004;42.624;23.386;2023-10-31T11:56:21;93865.34;;;20.37;44.13
7918;BME280;4004;42.624;23.386;2023-10-31T11:58:58;93872.53;;;20.47;44.09
7918;BME280;4004;42.624;23.386;2023-10-31T12:01:26;93870.34;;;20.58;43.84
7918;BME280;4004;42.624;23.386;2023-10-31T12:03:53;93863.88;;;20.68;43.69
7918;BME280;4004;42.624;23.386;2023-10-31T12:06:20;93856.88;;;20.67;43.68
7918;BME280;4004;42.624;23.386;2023-10-31T12:08:47;93848.34;;;20.65;43.31
7918;BME280;4004;42.624;23.386;2023-10-31T12:11:16;93860.38;;;20.68;43.41
7918;BME280;4004;42.624;23.386;2023-10-31T12:13:52;93856.38;;;20.73;43.16
7918;BME280;4004;42.624;23.386;2023-10-31T12:16:23;93845.25;;;20.80;43.13
7918;BME280;4004;42.624;23.386;2023-10-31T12:18:55;93840.84;;;20.86;43.09
7918;BME280;4004;42.624;23.386;2023-10-31T12:21:38;93849.38;;;20.88;42.91
7918;BME280;4004;42.624;23.386;2023-10-31T12:24:07;93847.41;;;20.88;43.00
7918;BME280;4004;42.624;23.386;2023-10-31T12:26:34;93846.13;;;20.93;42.95
7918;BME280;4004;42.624;23.386;2023-10-31T12:29:11;93842.34;;;20.87;42.76
7918;BME280;4004;42.624;23.386;2023-10-31T12:31:45;93841.00;;;20.95;43.38
7918;BME280;4004;42.624;23.386;2023-10-31T12:34:14;93836.03;;;21.06;43.06
7918;BME280;4004;42.624;23.386;2023-10-31T12:36:42;93825.63;;;21.01;42.70
7918;BME280;4004;42.624;23.386;2023-10-31T12:39:11;93832.06;;;21.07;41.97
7918;BME280;4004;42.624;23.386;2023-10-31T12:41:38;93821.69;;;21.02;42.28
7918;BME280;4004;42.624;23.386;2023-10-31T12:44:06;93815.69;;;21.07;42.22
7918;BME280;4004;42.624;23.386;2023-10-31T12:46:35;93815.78;;;21.04;42.56
7918;BME280;4004;42.624;23.386;2023-10-31T12:49:01;93811.84;;;21.05;42.80
7918;BME280;4004;42.624;23.386;2023-10-31T12:51:29;93807.75;;;21.13;42.78
7918;BME280;4004;42.624;23.386;2023-10-31T12:53:56;93805.34;;;21.15;42.19
7918;BME280;4004;42.624;23.386;2023-10-31T12:56:39;93804.94;;;21.00;42.35
7918;BME280;4004;42.624;23.386;2023-10-31T12:59:06;93798.78;;;20.96;42.51
7918;BME280;4004;42.624;23.386;2023-10-31T13:01:34;93798.78;;;20.96;42.74
7918;BME280;4004;42.624;23.386;2023-10-31T13:04:02;93793.50;;;20.89;42.66
7918;BME280;4004;42.624;23.386;2023-10-31T13:06:30;93795.75;;;20.78;42.38
7918;BME280;4004;42.624;23.386;2023-10-31T13:08:57;93796.97;;;20.77;42.32
7918;BME280;4004;42.624;23.386;2023-10-31T13:11:24;93797.38;;;20.75;42.42
7918;BME280;4004;42.624;23.386;2023-10-31T13:13:55;93794.72;;;20.72;42.51
7918;BME280;4004;42.624;23.386;2023-10-31T13:16:21;93787.75;;;20.70;42.41
7918;BME280;4004;42.624;23.386;2023-10-31T13:18:48;93799.25;;;20.62;42.68
7918;BME280;4004;42.624;23.386;2023-10-31T13:21:15;93805.16;;;20.60;42.98
7918;BME280;4004;42.624;23.386;2023-10-31T13:23:44;93795.31;;;20.63;43.07
7918;BME280;4004;42.624;23.386;2023-10-31T13:26:12;93787.13;;;20.63;43.09
7918;BME280;4004;42.624;23.386;2023-10-31T13:28:39;93780.16;;;20.62;42.99
7918;BME280;4004;42.624;23.386;2023-10-31T13:31:06;93789.25;;;20.55;43.04
7918;BME280;4004;42.624;23.386;2023-10-31T13:33:33;93793.50;;;20.56;43.05
7918;BME280;4004;42.624;23.386;2023-10-31T13:36:00;93791.28;;;20.51;43.25
7918;BME280;4004;42.624;23.386;2023-10-31T13:38:27;93780.72;;;20.53;42.98
7918;BME280;4004;42.624;23.386;2023-10-31T13:40:55;93781.44;;;20.57;42.91
7918;BME280;4004;42.624;23.386;2023-10-31T13:43:21;93781.44;;;20.57;43.04
7918;BME280;4004;42.624;23.386;2023-10-31T13:45:49;93777.56;;;20.55;43.15
7918;BME280;4004;42.624;23.386;2023-10-31T13:48:16;93790.53;;;20.50;43.46
7918;BME280;4004;42.624;23.386;2023-10-31T13:50:44;93779.09;;;20.56;43.48
7918;BME280;4004;42.624;23.386;2023-10-31T13:53:11;93784.66;;;20.52;43.77
7918;BME280;4004;42.624;23.386;2023-10-31T13:55:38;93774.34;;;20.60;43.24
7918;BME280;4004;42.624;23.386;2023-10-31T13:58:06;93759.59;;;20.57;42.74
7918;BME280;4004;42.624;23.386;2023-10-31T14:00:33;93762.38;;;20.54;42.87
7918;BME280;4004;42.624;23.386;2023-10-31T14:03:00;93755.03;;;20.50;42.87
7918;BME280;4004;42.624;23.386;2023-10-31T14:05:27;93763.84;;;20.58;42.68
7918;BME280;4004;42.624;23.386;2023-10-31T14:07:54;93759.88;;;20.43;43.15
7918;BME280;4004;42.624;23.386;2023-10-31T14:10:20;93760.81;;;20.36;43.15
7918;BME280;4004;42.624;23.386;2023-10-31T14:12:48;93774.56;;;20.33;43.10
7918;BME280;4004;42.624;23.386;2023-10-31T14:15:17;93775.50;;;20.26;43.64
7918;BME280;4004;42.624;23.386;2023-10-31T14:17:43;93779.59;;;20.18;43.92
7918;BME280;4004;42.624;23.386;2023-10-31T14:20:10;93764.03;;;19.98;43.11